Westerville, OH (43082)

7:57 AM EDT on July 24, 2016 (GMT -0400)
Boyer Nature Preserve | | Change Station
Active Advisory: Heat Advisory

Elev 889 ft 40.12 °N, 82.92 °W | Updated 11 minutes ago

Partly Cloudy
Partly Cloudy
73.2 °F
Feels Like 70 °F
N
0.0
Wind Variable Wind from SSW

Today
High -- | Low -- °F
--% Chance of Precip.
Yesterday
High -- | Low -- °F
Precip. -- in
Pressure 29.97 in
Visibility 10.0 miles
Clouds Few 4700 ft
Heat Index 70 °F
Dew Point 71 °F
Humidity 93%
Rainfall 0.00 in
Snow Depth Not available.
6:23 AM 8:52 PM
Waning Gibbous, 77% visible
METAR KOSU 241153Z 00000KT 10SM FEW047 26/23 A3000 RMK AO2 SLP149 T02560233 10256 20222 50002
Pressure 29.97 in
Visibility 10.0 miles
Clouds Few 4700 ft
Heat Index 70 °F
Dew Point 71 °F
Humidity 93%
Rainfall 0.00 in
Snow Depth Not available.
6:23 AM 8:52 PM
Waning Gibbous, 77% visible
METAR KOSU 241153Z 00000KT 10SM FEW047 26/23 A3000 RMK AO2 SLP149 T02560233 10256 20222 50002

10-Day Weather Forecast

Almanac

Astronomy

Jul. 24, 2016 Rise Set
Actual Time
Civil Twilight
Nautical Twilight
Astronomical Twilight
Moon
Length of Visible Light
Length of Day
Tomorrow will be .
, % of the Moon is Illuminated

Today's Extremes

State Highs State Lows

Community

WunderPhotos

Upload Photos

1,927,049 photos uploaded!

WunderBlog® & News

Nearby

Air Quality

  Air Quality AQ Index Pollutant
Not available.

Snow Depth

Station Depth Elevation

Earthquake Activity

City Distance Mag. Time & Date
Minimum magnitude displayed is 2.5.

Coastal Water Temperatures

Place Temperature

Stations

Nearby Weather Stations

Station Location Temp. Windchill Dew Point Humidity Wind Precip. Elev Updated Type
                   

Watches & Warnings

Heat Advisory
Issued: 3:43 AM EDT Jul. 24, 2016 – National Weather Service

... Heat advisory remains in effect until 8 PM EDT this evening...

* heat index values... from 100 to 104 due to temperatures in the
lower 90s... and dewpoints in the lower to middle 70s.

* Timing... highest temperatures and heat indices will occur
during the afternoon hours.

* Impacts... heat stroke... heat exhaustion and other heat related
illnesses will be possible... especially if you spend a
significant amount of time outdoors... or are involved in any
strenuous outdoor activity.

Precautionary/preparedness actions...

Reduce outdoor activities... especially from mid-morning through
the afternoon. Wear light weight and loose fitting clothing and
drink plenty of water. If possible... spend more time in air
conditioned or well ventilated places.

To reduce risk during outdoor work the occupational safety and
health administration recommends scheduling frequent rest breaks
in shaded or air conditioned environments. Anyone overcome by
heat should be moved to a cool and shaded location. Heat stroke
is an emergency... call 911.